createdAt,value
2018-08-13T00:00:02.995Z,53.45
2018-08-13T00:01:02.993Z,52.72
2018-08-13T00:02:02.964Z,53.32
2018-08-13T00:03:02.952Z,53.34
2018-08-13T00:04:02.932Z,51.63
2018-08-13T00:05:02.929Z,53.34
2018-08-13T00:06:02.936Z,53.45
2018-08-13T00:07:02.908Z,52.21
2018-08-13T00:08:02.891Z,53.14
2018-08-13T00:09:02.884Z,52.82
2018-08-13T00:10:02.862Z,53.25
2018-08-13T00:11:02.873Z,52.84
2018-08-13T00:12:02.854Z,53.14
2018-08-13T00:13:02.826Z,53.45
2018-08-13T00:14:02.863Z,52.44
2018-08-13T00:15:02.812Z,52.64
2018-08-13T00:16:02.814Z,53.55
2018-08-13T00:17:02.788Z,53.32
2018-08-13T00:18:02.769Z,53.25
2018-08-13T00:19:02.755Z,53.25
2018-08-13T00:20:02.754Z,53.14
2018-08-13T00:21:02.762Z,53.25
2018-08-13T00:22:02.723Z,54.16
2018-08-13T00:23:02.708Z,53.85
2018-08-13T00:24:02.703Z,53.34
2018-08-13T00:25:02.695Z,53.65
2018-08-13T00:26:02.702Z,54.56
2018-08-13T00:27:02.673Z,53.85
2018-08-13T00:28:02.654Z,53.85
2018-08-13T00:29:02.644Z,52.23
2018-08-13T00:30:02.629Z,53.67
2018-08-13T00:31:02.647Z,54.28
2018-08-13T00:32:02.608Z,54.38
2018-08-13T00:33:02.592Z,53.98
2018-08-13T00:34:02.590Z,53.98
2018-08-13T00:35:02.575Z,54.28
2018-08-13T00:36:02.586Z,54.99
2018-08-13T00:37:02.559Z,53.88
2018-08-13T00:38:02.534Z,55.40
2018-08-13T00:39:02.526Z,55.40
2018-08-13T00:40:02.511Z,55.29
2018-08-13T00:41:02.531Z,54.82
2018-08-13T00:42:02.497Z,53.78
2018-08-13T00:43:02.482Z,54.99
2018-08-13T00:44:02.466Z,55.49
2018-08-13T00:45:02.459Z,55.09
2018-08-13T00:46:02.465Z,55.40
2018-08-13T00:47:02.431Z,54.38
2018-08-13T00:48:02.424Z,54.49
2018-08-13T00:49:02.414Z,53.75
2018-08-13T00:50:02.397Z,55.19
2018-08-13T00:51:02.457Z,55.27
2018-08-13T00:52:02.372Z,55.40
2018-08-13T00:53:02.357Z,54.28
2018-08-13T00:54:02.356Z,54.89
2018-08-13T00:55:02.364Z,54.49
2018-08-13T00:56:02.354Z,53.65
2018-08-13T00:57:02.310Z,54.16
2018-08-13T00:58:02.301Z,53.75
2018-08-13T00:59:02.302Z,54.28
2018-08-13T01:00:02.287Z,54.86
2018-08-13T01:01:02.299Z,54.25
2018-08-13T01:02:02.262Z,54.56
2018-08-13T01:03:02.245Z,53.96
2018-08-13T01:04:02.238Z,53.85
2018-08-13T01:05:02.217Z,54.46
2018-08-13T01:06:02.214Z,55.16
2018-08-13T01:07:02.226Z,55.16
2018-08-13T01:08:02.183Z,55.07
2018-08-13T01:09:02.180Z,55.29
2018-08-13T01:10:02.158Z,55.36
2018-08-13T01:11:02.151Z,55.36
2018-08-13T01:12:02.157Z,55.16
2018-08-13T01:13:02.131Z,55.36
2018-08-13T01:14:02.119Z,54.86
2018-08-13T01:15:02.107Z,55.36
2018-08-13T01:16:02.093Z,53.88
2018-08-13T01:17:02.108Z,55.16
2018-08-13T01:18:02.080Z,55.16
2018-08-13T01:19:02.064Z,55.16
2018-08-13T01:20:02.050Z,54.99
2018-08-13T01:21:02.041Z,54.66
2018-08-13T01:22:02.043Z,55.27
2018-08-13T01:23:02.009Z,54.89
2018-08-13T01:24:02.011Z,53.67
2018-08-13T01:25:01.986Z,53.88
2018-08-13T01:26:01.990Z,53.98
2018-08-13T01:27:01.991Z,54.49
2018-08-13T01:28:01.960Z,54.99
2018-08-13T01:29:01.947Z,54.49
2018-08-13T01:30:01.928Z,53.85
2018-08-13T01:31:01.918Z,53.85
2018-08-13T01:32:01.938Z,55.40
2018-08-13T01:33:01.895Z,54.46
2018-08-13T01:34:01.881Z,55.40
2018-08-13T01:35:01.869Z,55.36
2018-08-13T01:36:01.866Z,56.00
2018-08-13T01:37:01.870Z,55.90
2018-08-13T01:38:01.841Z,56.00
2018-08-13T01:39:01.824Z,55.60
2018-08-13T01:40:01.841Z,55.09
2018-08-13T01:41:01.800Z,56.20
2018-08-13T01:42:01.791Z,56.40
2018-08-13T01:43:01.777Z,56.81
2018-08-13T01:44:01.771Z,56.71
2018-08-13T01:45:01.777Z,56.71
2018-08-13T01:46:01.746Z,56.43
2018-08-13T01:47:01.727Z,56.53
2018-08-13T01:48:01.756Z,56.13
2018-08-13T01:49:01.704Z,55.42
2018-08-13T01:50:01.726Z,56.53
2018-08-13T01:51:01.684Z,56.53
2018-08-13T01:52:01.674Z,56.23
2018-08-13T01:53:01.675Z,56.33
2018-08-13T01:54:01.646Z,56.53
2018-08-13T01:55:01.659Z,56.86
2018-08-13T01:56:01.632Z,57.14
2018-08-13T01:57:01.616Z,56.86
2018-08-13T01:58:01.604Z,56.63
2018-08-13T01:59:01.593Z,56.36
2018-08-13T02:00:01.601Z,57.04
2018-08-13T02:01:01.565Z,57.27
2018-08-13T02:02:01.561Z,57.04
2018-08-13T02:03:01.549Z,56.73
2018-08-13T02:04:01.548Z,56.84
2018-08-13T02:05:01.545Z,57.27
2018-08-13T02:06:01.510Z,57.27
2018-08-13T02:07:01.498Z,57.44
2018-08-13T02:08:01.491Z,57.54
2018-08-13T02:09:01.481Z,57.24
2018-08-13T02:10:01.491Z,57.57
2018-08-13T02:11:01.450Z,57.34
2018-08-13T02:12:01.446Z,57.54
2018-08-13T02:13:01.432Z,57.57
2018-08-13T02:14:01.426Z,57.57
2018-08-13T02:15:01.425Z,57.54
2018-08-13T02:16:01.400Z,57.24
2018-08-13T02:17:01.386Z,57.57
2018-08-13T02:18:01.377Z,57.37
2018-08-13T02:19:01.378Z,57.54
2018-08-13T02:20:01.351Z,57.44
2018-08-13T02:21:01.358Z,57.98
2018-08-13T02:22:01.327Z,57.67
2018-08-13T02:23:01.316Z,57.78
2018-08-13T02:24:01.307Z,57.98
2018-08-13T02:25:01.290Z,57.85
2018-08-13T02:26:01.305Z,57.57
2018-08-13T02:27:01.271Z,57.57
2018-08-13T02:28:01.253Z,57.67
2018-08-13T02:29:01.242Z,57.65
2018-08-13T02:30:01.235Z,57.75
2018-08-13T02:31:01.241Z,57.67
2018-08-13T02:32:01.210Z,57.54
2018-08-13T02:33:01.196Z,57.44
2018-08-13T02:34:01.186Z,57.67
2018-08-13T02:35:01.176Z,57.47
2018-08-13T02:36:01.189Z,57.24
2018-08-13T02:37:01.146Z,57.37
2018-08-13T02:38:01.139Z,57.24
2018-08-13T02:39:01.188Z,57.17
2018-08-13T02:40:01.120Z,57.34
2018-08-13T02:41:01.132Z,57.27
2018-08-13T02:42:01.089Z,57.42
2018-08-13T02:43:01.087Z,57.44
2018-08-13T02:44:01.074Z,57.54
2018-08-13T02:45:01.070Z,57.34
2018-08-13T02:46:01.067Z,57.14
2018-08-13T02:47:01.031Z,57.14
2018-08-13T02:48:01.027Z,57.24
2018-08-13T02:49:01.006Z,57.44
2018-08-13T02:50:00.998Z,57.24
2018-08-13T02:51:01.017Z,57.24
2018-08-13T02:52:00.974Z,57.24
2018-08-13T02:53:00.969Z,56.73
2018-08-13T02:54:00.948Z,56.53
2018-08-13T02:55:00.942Z,57.24
2018-08-13T02:56:00.957Z,57.24
2018-08-13T02:57:00.919Z,56.43
2018-08-13T02:58:00.956Z,57.04
2018-08-13T02:59:00.899Z,56.71
2018-08-13T03:00:00.882Z,56.94
2018-08-13T03:01:00.898Z,56.91
2018-08-13T03:02:00.856Z,56.51
2018-08-13T03:03:00.845Z,56.81
2018-08-13T03:04:00.836Z,57.11
2018-08-13T03:05:00.828Z,56.71
2018-08-13T03:06:00.836Z,56.61
2018-08-13T03:07:00.803Z,56.61
2018-08-13T03:08:00.789Z,56.40
2018-08-13T03:09:00.774Z,56.61
2018-08-13T03:10:00.769Z,56.51
2018-08-13T03:11:00.773Z,56.81
2018-08-13T03:12:00.745Z,56.81
2018-08-13T03:13:00.728Z,56.81
2018-08-13T03:14:00.720Z,56.40
2018-08-13T03:15:00.700Z,56.30
2018-08-13T03:16:00.723Z,56.30
2018-08-13T03:17:00.678Z,56.38
2018-08-13T03:18:00.677Z,56.27
2018-08-13T03:19:00.662Z,56.71
2018-08-13T03:20:00.653Z,55.29
2018-08-13T03:21:00.662Z,56.88
2018-08-13T03:22:00.621Z,56.78
2018-08-13T03:23:00.616Z,56.51
2018-08-13T03:24:00.600Z,56.58
2018-08-13T03:25:00.595Z,57.01
2018-08-13T03:26:00.602Z,57.01
2018-08-13T03:27:00.561Z,56.81
2018-08-13T03:28:00.558Z,56.58
2018-08-13T03:29:00.544Z,56.91
2018-08-13T03:30:00.538Z,56.81
2018-08-13T03:31:00.541Z,57.21
2018-08-13T03:32:00.509Z,57.21
2018-08-13T03:33:00.500Z,57.21
2018-08-13T03:34:00.479Z,57.62
2018-08-13T03:35:00.480Z,57.72
2018-08-13T03:36:00.487Z,57.11
2018-08-13T03:37:00.452Z,57.95
2018-08-13T03:38:00.444Z,57.72
2018-08-13T03:39:00.427Z,57.75
2018-08-13T03:40:00.413Z,57.62
2018-08-13T03:41:00.421Z,57.82
2018-08-13T03:42:00.387Z,58.02
2018-08-13T03:43:00.379Z,58.02
2018-08-13T03:44:00.370Z,58.05
2018-08-13T03:45:00.360Z,58.05
2018-08-13T03:46:00.363Z,58.12
2018-08-13T03:47:00.328Z,57.21
2018-08-13T03:48:00.325Z,57.62
2018-08-13T03:49:00.312Z,57.95
2018-08-13T03:50:00.299Z,57.92
2018-08-13T03:51:00.304Z,57.85
2018-08-13T03:52:00.279Z,57.75
2018-08-13T03:53:00.261Z,57.82
2018-08-13T03:54:00.249Z,57.75
2018-08-13T03:55:00.244Z,58.23
2018-08-13T03:56:00.253Z,57.92
2018-08-13T03:57:00.223Z,58.45
2018-08-13T03:58:00.209Z,57.75
2018-08-13T03:59:00.189Z,57.82
2018-08-13T04:00:00.193Z,57.92
2018-08-13T04:01:00.189Z,57.62
2018-08-13T04:02:00.163Z,57.01
2018-08-13T04:03:00.146Z,57.92
2018-08-13T04:04:00.137Z,58.12
2018-08-13T04:05:00.123Z,57.31
2018-08-13T04:06:00.137Z,57.92
2018-08-13T04:07:00.100Z,58.02
2018-08-13T04:08:00.091Z,57.72
2018-08-13T04:09:00.082Z,57.62
2018-08-13T04:10:00.076Z,57.72
2018-08-13T04:11:00.082Z,57.39
2018-08-13T04:12:00.048Z,57.49
2018-08-13T04:13:00.142Z,57.18
2018-08-13T04:14:00.024Z,57.39
2018-08-13T04:15:00.009Z,57.29
2018-08-13T04:16:00.022Z,57.18
2018-08-13T04:16:59.983Z,56.78
2018-08-13T04:17:59.975Z,57.29
2018-08-13T04:18:59.963Z,57.29
2018-08-13T04:19:59.953Z,57.18
2018-08-13T04:20:59.955Z,57.18
2018-08-13T04:21:59.931Z,57.09
2018-08-13T04:22:59.912Z,57.18
2018-08-13T04:23:59.908Z,57.29
2018-08-13T04:24:59.887Z,57.49
2018-08-13T04:25:59.908Z,57.49
2018-08-13T04:26:59.870Z,57.69
2018-08-13T04:27:59.858Z,56.88
2018-08-13T04:28:59.844Z,56.58
2018-08-13T04:29:59.836Z,56.68
2018-08-13T04:30:59.848Z,56.68
2018-08-13T04:31:59.810Z,56.45
2018-08-13T04:32:59.797Z,56.18
2018-08-13T04:33:59.794Z,56.35
2018-08-13T04:34:59.782Z,56.25
2018-08-13T04:35:59.785Z,55.72
2018-08-13T04:36:59.752Z,55.32
2018-08-13T04:37:59.744Z,55.21
2018-08-13T04:38:59.731Z,55.21
2018-08-13T04:39:59.719Z,55.52
2018-08-13T04:40:59.739Z,55.52
2018-08-13T04:41:59.692Z,55.62
2018-08-13T04:42:59.680Z,55.11
2018-08-13T04:43:59.679Z,54.89
2018-08-13T04:44:59.663Z,54.38
2018-08-13T04:45:59.672Z,54.56
2018-08-13T04:46:59.649Z,54.66
2018-08-13T04:47:59.623Z,53.85
2018-08-13T04:48:59.623Z,54.16
2018-08-13T04:49:59.605Z,53.85
2018-08-13T04:50:59.613Z,55.57
2018-08-13T04:51:59.648Z,55.26
2018-08-13T04:52:59.574Z,58.29
2018-08-13T04:53:59.560Z,57.58
2018-08-13T04:54:59.553Z,58.19
2018-08-13T04:55:59.560Z,57.38
2018-08-13T04:56:59.522Z,58.16
2018-08-13T04:57:59.513Z,57.25
2018-08-13T04:58:59.553Z,58.97
2018-08-13T04:59:59.493Z,61.29
2018-08-13T05:00:59.503Z,58.36
2018-08-13T05:01:59.471Z,57.76
2018-08-13T05:02:59.484Z,58.06
2018-08-13T05:03:59.445Z,61.99
2018-08-13T05:04:59.437Z,58.06
2018-08-13T05:05:59.449Z,59.27
2018-08-13T05:06:59.411Z,60.68
2018-08-13T05:07:59.405Z,57.12
2018-08-13T05:08:59.390Z,58.84
2018-08-13T05:09:59.380Z,61.43
2018-08-13T05:10:59.392Z,66.80
2018-08-13T05:11:59.359Z,62.66
2018-08-13T05:12:59.349Z,64.07
2018-08-13T05:13:59.335Z,62.26
2018-08-13T05:14:59.321Z,61.13
2018-08-13T05:15:59.331Z,61.13
2018-08-13T05:16:59.300Z,63.75
2018-08-13T05:17:59.285Z,64.28
2018-08-13T05:18:59.277Z,64.28
2018-08-13T05:19:59.268Z,62.06
2018-08-13T05:20:59.275Z,60.96
2018-08-13T05:21:59.244Z,63.34
2018-08-13T05:22:59.226Z,62.84
2018-08-13T05:23:59.265Z,61.13
2018-08-13T05:24:59.203Z,66.70
2018-08-13T05:25:59.226Z,63.47
2018-08-13T05:26:59.181Z,67.50
2018-08-13T05:27:59.179Z,65.69
2018-08-13T05:28:59.159Z,63.78
2018-08-13T05:29:59.183Z,64.28
2018-08-13T05:30:59.235Z,67.00
2018-08-13T05:31:59.175Z,66.80
2018-08-13T05:32:59.141Z,64.11
2018-08-13T05:33:59.132Z,64.98
2018-08-13T05:34:59.113Z,63.47
2018-08-13T05:35:59.113Z,62.97
2018-08-13T05:36:59.072Z,64.58
2018-08-13T05:37:59.059Z,64.28
2018-08-13T05:38:59.047Z,64.18
2018-08-13T05:39:59.111Z,64.07
2018-08-13T05:40:59.053Z,66.50
2018-08-13T05:41:59.014Z,59.24
2018-08-13T05:42:59.001Z,59.75
2018-08-13T05:43:58.996Z,59.44
2018-08-13T05:44:59.028Z,59.64
2018-08-13T05:45:58.988Z,57.56
2018-08-13T05:46:58.951Z,59.84
2018-08-13T05:47:58.953Z,64.48
2018-08-13T05:48:58.936Z,68.51
2018-08-13T05:49:58.923Z,65.99
2018-08-13T05:50:59.068Z,62.57
2018-08-13T05:51:58.896Z,69.82
2018-08-13T05:52:58.938Z,70.42
2018-08-13T05:53:58.875Z,72.85
2018-08-13T05:54:58.864Z,67.30
2018-08-13T05:55:58.885Z,70.26
2018-08-13T05:56:59.001Z,72.64
2018-08-13T05:57:58.837Z,69.75
2018-08-13T05:58:58.822Z,73.38
2018-08-13T05:59:58.808Z,69.95
2018-08-13T06:00:58.816Z,70.76
2018-08-13T06:01:58.784Z,68.71
2018-08-13T06:02:58.821Z,69.25
2018-08-13T06:03:58.765Z,69.82
2018-08-13T06:04:58.751Z,71.23
2018-08-13T06:05:58.766Z,73.55
2018-08-13T06:06:58.727Z,72.58
2018-08-13T06:07:58.723Z,72.47
2018-08-13T06:08:58.704Z,74.99
2018-08-13T06:09:58.699Z,71.17
2018-08-13T06:10:58.712Z,72.27
2018-08-13T06:11:58.670Z,70.46
2018-08-13T06:12:58.667Z,70.66
2018-08-13T06:13:58.647Z,69.35
2018-08-13T06:14:58.638Z,69.75
2018-08-13T06:15:58.655Z,69.82
2018-08-13T06:16:58.621Z,70.62
2018-08-13T06:17:58.627Z,70.32
2018-08-13T06:18:58.596Z,69.52
2018-08-13T06:19:58.582Z,69.62
2018-08-13T06:20:58.595Z,70.12
2018-08-13T06:21:58.559Z,70.12
2018-08-13T06:22:58.674Z,69.32
2018-08-13T06:23:58.542Z,69.82
2018-08-13T06:24:58.544Z,71.03
2018-08-13T06:25:58.538Z,74.15
2018-08-13T06:26:58.500Z,72.74
2018-08-13T06:27:58.492Z,78.59
2018-08-13T06:28:58.488Z,76.61
2018-08-13T06:29:58.471Z,75.87
2018-08-13T06:30:58.483Z,76.51
2018-08-13T06:31:58.448Z,80.74
2018-08-13T06:32:58.433Z,79.27
2018-08-13T06:33:58.480Z,79.16
2018-08-13T06:34:58.414Z,78.90
2018-08-13T06:35:58.421Z,78.70
2018-08-13T06:36:58.385Z,80.45
2018-08-13T06:37:58.376Z,80.41
2018-08-13T06:38:58.364Z,83.64
2018-08-13T06:39:58.365Z,85.19
2018-08-13T06:40:58.365Z,82.61
2018-08-13T06:41:58.333Z,83.36
2018-08-13T06:42:58.316Z,85.58
2018-08-13T06:43:58.314Z,85.17
2018-08-13T06:44:58.293Z,87.70
2018-08-13T06:45:58.313Z,85.62
2018-08-13T06:46:58.293Z,89.46
2018-08-13T06:47:58.266Z,90.17
2018-08-13T06:48:58.251Z,91.63
2018-08-13T06:49:58.237Z,91.63
2018-08-13T06:50:58.255Z,93.15
2018-08-13T06:51:58.209Z,92.84
2018-08-13T06:52:58.209Z,93.04
2018-08-13T06:53:58.195Z,92.44
2018-08-13T06:54:58.175Z,92.03
2018-08-13T06:55:58.195Z,92.94
2018-08-13T06:56:58.153Z,92.88
2018-08-13T06:57:58.150Z,92.84
2018-08-13T06:58:58.133Z,93.90
2018-08-13T06:59:58.123Z,93.65
2018-08-13T07:00:58.131Z,94.36
2018-08-13T07:01:58.100Z,94.56
2018-08-13T07:02:58.086Z,94.06
2018-08-13T07:03:58.077Z,93.95
2018-08-13T07:04:58.067Z,94.76
2018-08-13T07:05:58.081Z,94.76
2018-08-13T07:06:58.040Z,94.76
2018-08-13T07:07:58.033Z,94.76
2018-08-13T07:08:58.015Z,94.51
2018-08-13T07:09:58.011Z,94.36
2018-08-13T07:10:58.018Z,94.51
2018-08-13T07:11:57.985Z,94.72
2018-08-13T07:12:57.980Z,94.62
2018-08-13T07:13:57.957Z,94.51
2018-08-13T07:14:57.944Z,92.80
2018-08-13T07:15:57.966Z,92.29
2018-08-13T07:16:57.928Z,92.29
2018-08-13T07:17:57.914Z,90.58
2018-08-13T07:18:57.899Z,91.99
2018-08-13T07:19:57.897Z,92.14
2018-08-13T07:20:57.905Z,92.25
2018-08-13T07:21:57.920Z,91.94
2018-08-13T07:22:57.866Z,90.94
2018-08-13T07:23:57.847Z,91.94
2018-08-13T07:24:57.846Z,91.74
2018-08-13T07:25:57.843Z,91.14
2018-08-13T07:26:57.806Z,91.24
2018-08-13T07:27:57.830Z,91.24
2018-08-13T07:28:57.792Z,90.73
2018-08-13T07:29:57.775Z,90.59
2018-08-13T07:30:57.787Z,90.79
2018-08-13T07:31:57.756Z,92.00
2018-08-13T07:32:57.746Z,92.30
2018-08-13T07:33:57.728Z,91.30
2018-08-13T07:34:57.732Z,89.68
2018-08-13T07:35:57.735Z,88.37
2018-08-13T07:36:57.694Z,88.87
2018-08-13T07:37:57.684Z,89.88
2018-08-13T07:38:57.706Z,90.39
2018-08-13T07:39:57.671Z,90.24
2018-08-13T07:40:57.677Z,89.23
2018-08-13T07:41:57.636Z,89.37
2018-08-13T07:42:57.635Z,91.30
2018-08-13T07:43:57.610Z,90.45
2018-08-13T07:44:57.608Z,90.45
2018-08-13T07:45:57.609Z,89.74
2018-08-13T07:46:57.581Z,90.55
2018-08-13T07:47:57.567Z,90.75
2018-08-13T07:48:57.562Z,90.14
2018-08-13T07:49:57.540Z,89.54
2018-08-13T07:50:57.552Z,89.74
2018-08-13T07:51:57.546Z,89.13
2018-08-13T07:52:57.514Z,89.54
2018-08-13T07:53:57.498Z,89.34
2018-08-13T07:54:57.498Z,88.83
2018-08-13T07:55:57.500Z,87.62
2018-08-13T07:56:57.470Z,89.43
2018-08-13T07:57:57.454Z,88.12
2018-08-13T07:58:57.436Z,89.43
2018-08-13T07:59:57.439Z,87.62
2018-08-13T08:00:57.451Z,88.53
2018-08-13T08:01:57.406Z,86.91
2018-08-13T08:02:57.396Z,88.12
2018-08-13T08:03:57.385Z,89.74
2018-08-13T08:04:57.377Z,88.12
2018-08-13T08:05:57.381Z,89.74
2018-08-13T08:06:57.349Z,88.83
2018-08-13T08:07:57.347Z,89.34
2018-08-13T08:08:57.338Z,87.72
2018-08-13T08:09:57.318Z,86.51
2018-08-13T08:10:57.329Z,88.63
2018-08-13T08:11:57.297Z,89.29
2018-08-13T08:12:57.289Z,89.34
2018-08-13T08:13:57.275Z,85.76
2018-08-13T08:14:57.263Z,86.57
2018-08-13T08:15:57.266Z,87.38
2018-08-13T08:16:57.234Z,88.79
2018-08-13T08:17:57.226Z,88.59
2018-08-13T08:18:57.212Z,85.86
2018-08-13T08:19:57.201Z,86.77
2018-08-13T08:20:57.206Z,86.36
2018-08-13T08:21:57.239Z,87.34
2018-08-13T08:22:57.160Z,84.81
2018-08-13T08:23:57.174Z,85.42
2018-08-13T08:24:57.140Z,84.01
2018-08-13T08:25:57.157Z,84.71
2018-08-13T08:26:57.123Z,86.33
2018-08-13T08:27:57.109Z,85.42
2018-08-13T08:28:57.101Z,84.01
2018-08-13T08:29:57.079Z,84.01
2018-08-13T08:30:57.100Z,84.21
2018-08-13T08:31:57.060Z,85.22
2018-08-13T08:32:57.053Z,85.11
2018-08-13T08:33:57.042Z,85.31
2018-08-13T08:34:57.027Z,85.02
2018-08-13T08:35:57.041Z,85.62
2018-08-13T08:36:57.001Z,83.54
2018-08-13T08:37:56.991Z,83.74
2018-08-13T08:38:56.987Z,85.96
2018-08-13T08:39:56.963Z,84.15
2018-08-13T08:40:57.005Z,84.91
2018-08-13T08:41:56.951Z,88.14
2018-08-13T08:42:56.928Z,87.63
2018-08-13T08:43:56.925Z,88.04
2018-08-13T08:44:56.910Z,86.22
2018-08-13T08:45:56.943Z,86.27
2018-08-13T08:46:56.884Z,87.23
2018-08-13T08:47:56.874Z,89.79
2018-08-13T08:48:56.861Z,88.34
2018-08-13T08:49:56.852Z,88.04
2018-08-13T08:50:56.865Z,90.61
2018-08-13T08:51:56.825Z,91.11
2018-08-13T08:52:56.816Z,91.11
2018-08-13T08:53:56.803Z,91.31
2018-08-13T08:54:56.794Z,89.70
2018-08-13T08:55:56.808Z,89.74
2018-08-13T08:56:56.770Z,91.05
2018-08-13T08:57:56.755Z,92.72
2018-08-13T08:58:56.750Z,91.76
2018-08-13T08:59:56.730Z,91.86
2018-08-13T09:00:56.763Z,90.85
2018-08-13T09:01:56.708Z,91.05
2018-08-13T09:02:56.696Z,92.22
2018-08-13T09:03:56.692Z,94.04
2018-08-13T09:04:56.674Z,92.42
2018-08-13T09:05:56.717Z,91.82
2018-08-13T09:06:56.652Z,92.72
2018-08-13T09:07:56.643Z,92.62
2018-08-13T09:08:56.630Z,90.20
2018-08-13T09:09:56.619Z,90.65
2018-08-13T09:10:56.630Z,90.70
2018-08-13T09:11:56.596Z,90.10
2018-08-13T09:12:56.582Z,88.99
2018-08-13T09:13:56.575Z,89.59
2018-08-13T09:14:56.555Z,88.99
2018-08-13T09:15:56.575Z,87.84
2018-08-13T09:16:56.535Z,87.78
2018-08-13T09:17:56.530Z,88.68
2018-08-13T09:18:56.557Z,89.50
2018-08-13T09:19:56.505Z,88.04
2018-08-13T09:20:56.527Z,90.77
2018-08-13T09:21:56.473Z,87.58
2018-08-13T09:22:56.462Z,88.28
2018-08-13T09:23:56.461Z,88.34
2018-08-13T09:24:56.447Z,87.94
2018-08-13T09:25:56.429Z,90.16
2018-08-13T09:26:56.439Z,88.95
2018-08-13T09:27:56.414Z,88.30
2018-08-13T09:28:56.403Z,90.11
2018-08-13T09:29:56.385Z,89.51
2018-08-13T09:30:56.383Z,89.41
2018-08-13T09:31:56.388Z,89.31
2018-08-13T09:32:56.355Z,89.57
2018-08-13T09:33:56.338Z,88.72
2018-08-13T09:34:56.330Z,88.82
2018-08-13T09:35:56.317Z,88.88
2018-08-13T09:36:56.328Z,88.43
2018-08-13T09:37:56.300Z,86.58
2018-08-13T09:38:56.283Z,86.28
2018-08-13T09:39:56.307Z,87.15
2018-08-13T09:40:56.266Z,86.74
2018-08-13T09:41:56.284Z,84.39
2018-08-13T09:42:56.242Z,86.20
2018-08-13T09:43:56.222Z,84.55
2018-08-13T09:44:56.215Z,83.11
2018-08-13T09:45:56.201Z,83.75
2018-08-13T09:46:56.188Z,84.81
2018-08-13T09:47:56.210Z,83.07
2018-08-13T09:48:56.171Z,83.57
2018-08-13T09:49:56.172Z,82.17
2018-08-13T09:50:56.151Z,82.82
2018-08-13T09:51:56.132Z,82.93
2018-08-13T09:52:56.158Z,75.87
2018-08-13T09:53:56.235Z,75.97
2018-08-13T09:54:56.101Z,80.35
2018-08-13T09:55:56.111Z,81.85
2018-08-13T09:56:56.078Z,75.90
2018-08-13T09:57:56.101Z,74.50
2018-08-13T09:58:56.055Z,75.80
2018-08-13T09:59:56.051Z,73.10
2018-08-13T10:00:56.039Z,74.30
2018-08-13T10:01:56.024Z,73.19
2018-08-13T10:02:56.048Z,71.09
2018-08-13T10:03:56.004Z,77.91
2018-08-13T10:04:55.995Z,74.23
2018-08-13T10:05:55.975Z,72.53
2018-08-13T10:06:55.964Z,72.60
2018-08-13T10:07:55.993Z,69.02
2018-08-13T10:08:55.941Z,69.02
2018-08-13T10:09:55.940Z,69.73
2018-08-13T10:10:55.955Z,70.73
2018-08-13T10:11:55.915Z,72.09
2018-08-13T10:12:55.904Z,72.00
2018-08-13T10:13:55.915Z,69.39
2018-08-13T10:14:55.886Z,69.79
2018-08-13T10:15:55.873Z,74.06
2018-08-13T10:16:55.858Z,70.50
2018-08-13T10:17:55.895Z,73.96
2018-08-13T10:18:55.862Z,71.16
2018-08-13T10:19:55.828Z,70.56
2018-08-13T10:20:55.809Z,68.69
2018-08-13T10:21:55.807Z,72.09
2018-08-13T10:22:55.794Z,69.36
2018-08-13T10:23:55.797Z,72.16
2018-08-13T10:24:55.767Z,72.30
2018-08-13T10:25:55.757Z,68.66
2018-08-13T10:26:55.746Z,68.36
2018-08-13T10:27:55.732Z,68.66
2018-08-13T10:28:55.739Z,70.46
2018-08-13T10:29:55.718Z,67.86
2018-08-13T10:30:55.695Z,72.26
2018-08-13T10:31:55.691Z,72.66
2018-08-13T10:32:55.679Z,72.16
2018-08-13T10:33:55.687Z,72.86
2018-08-13T10:34:55.652Z,73.03
2018-08-13T10:35:55.643Z,68.76
2018-08-13T10:36:55.634Z,68.73
2018-08-13T10:37:55.614Z,67.82
2018-08-13T10:38:55.629Z,70.53
2018-08-13T10:39:55.596Z,70.83
2018-08-13T10:40:55.581Z,71.33
2018-08-13T10:41:55.574Z,71.33
2018-08-13T10:42:55.556Z,68.89
2018-08-13T10:43:55.576Z,67.59
2018-08-13T10:44:55.582Z,66.69
2018-08-13T10:45:55.530Z,66.79
2018-08-13T10:46:55.516Z,70.09
2018-08-13T10:47:55.509Z,71.76
2018-08-13T10:48:55.518Z,70.72
2018-08-13T10:49:55.478Z,69.56
2018-08-13T10:50:55.474Z,68.73
2018-08-13T10:51:55.460Z,68.99
2018-08-13T10:52:55.458Z,68.66
2018-08-13T10:53:55.470Z,66.97
2018-08-13T10:54:55.429Z,68.56
2018-08-13T10:55:55.414Z,64.25
2018-08-13T10:56:55.399Z,65.34
2018-08-13T10:57:55.402Z,64.42
2018-08-13T10:58:55.412Z,60.36
2018-08-13T10:59:55.370Z,62.42
2018-08-13T11:00:55.359Z,65.21
2018-08-13T11:01:55.356Z,66.50
2018-08-13T11:02:55.435Z,67.80
2018-08-13T11:03:55.354Z,60.63
2018-08-13T11:04:55.322Z,59.04
2018-08-13T11:05:55.301Z,60.90
2018-08-13T11:06:55.294Z,59.91
2018-08-13T11:07:55.297Z,60.40
2018-08-13T11:08:55.300Z,61.43
2018-08-13T11:09:55.267Z,63.52
2018-08-13T11:10:55.250Z,63.82
2018-08-13T11:11:55.244Z,61.13
2018-08-13T11:12:55.239Z,60.66
2018-08-13T11:13:55.245Z,62.05
2018-08-13T11:14:55.203Z,59.66
2018-08-13T11:15:55.204Z,62.38
2018-08-13T11:16:55.180Z,61.41
2018-08-13T11:17:55.182Z,63.54
2018-08-13T11:18:55.181Z,61.65
2018-08-13T11:19:55.155Z,61.98
2018-08-13T11:20:55.144Z,62.77
2018-08-13T11:21:55.134Z,63.60
2018-08-13T11:22:55.128Z,66.09
2018-08-13T11:23:55.130Z,67.30
2018-08-13T11:24:55.094Z,65.93
2018-08-13T11:25:55.085Z,64.13
2018-08-13T11:26:55.074Z,65.36
2018-08-13T11:27:55.058Z,68.46
2018-08-13T11:28:55.074Z,66.29
2018-08-13T11:29:55.034Z,69.66
2018-08-13T11:30:55.031Z,69.29
2018-08-13T11:31:55.011Z,68.93
2018-08-13T11:32:55.009Z,68.23
2018-08-13T11:33:55.010Z,69.96
2018-08-13T11:34:55.016Z,67.76
2018-08-13T11:35:54.964Z,66.69
2018-08-13T11:36:54.963Z,67.19
2018-08-13T11:37:54.948Z,69.53
2018-08-13T11:38:54.954Z,68.32
2018-08-13T11:39:54.921Z,72.13
2018-08-13T11:40:54.908Z,70.83
2018-08-13T11:41:54.906Z,72.73
2018-08-13T11:42:54.887Z,69.62
2018-08-13T11:43:54.902Z,73.39
2018-08-13T11:44:54.864Z,70.93
2018-08-13T11:45:54.856Z,72.00
2018-08-13T11:46:54.840Z,71.00
2018-08-13T11:47:54.839Z,72.30
2018-08-13T11:48:54.842Z,70.59
2018-08-13T11:49:54.815Z,71.00
2018-08-13T11:50:54.801Z,71.06
2018-08-13T11:51:54.782Z,68.55
2018-08-13T11:52:54.770Z,68.93
2018-08-13T11:53:54.791Z,67.72
2018-08-13T11:54:54.753Z,66.52
2018-08-13T11:55:54.738Z,70.19
2018-08-13T11:56:54.737Z,69.59
2018-08-13T11:57:54.714Z,67.29
2018-08-13T11:58:54.734Z,70.86
2018-08-13T11:59:54.696Z,70.42
2018-08-13T12:00:54.702Z,66.00
2018-08-13T12:01:54.691Z,65.03
2018-08-13T12:02:54.668Z,69.39
2018-08-13T12:03:54.670Z,68.99
2018-08-13T12:04:54.641Z,71.69
2018-08-13T12:05:54.632Z,66.30
2018-08-13T12:06:54.623Z,68.89
2018-08-13T12:07:54.608Z,67.33
2018-08-13T12:08:54.621Z,68.13
2018-08-13T12:09:54.585Z,71.03
2018-08-13T12:10:54.573Z,65.83
2018-08-13T12:11:54.560Z,69.39
2018-08-13T12:12:54.546Z,65.70
2018-08-13T12:13:54.559Z,67.93
2018-08-13T12:14:54.528Z,65.30
2018-08-13T12:15:54.517Z,65.80
2018-08-13T12:16:54.504Z,66.53
2018-08-13T12:17:54.502Z,68.73
2018-08-13T12:18:54.505Z,68.99
2018-08-13T12:19:54.476Z,66.66
2018-08-13T12:20:54.456Z,65.77
2018-08-13T12:21:54.454Z,66.93
2018-08-13T12:22:54.442Z,68.40
2018-08-13T12:23:54.448Z,64.31
2018-08-13T12:24:54.415Z,65.47
2018-08-13T12:25:54.405Z,63.88
2018-08-13T12:26:54.394Z,67.36
2018-08-13T12:27:54.383Z,64.78
2018-08-13T12:28:54.400Z,61.29
2018-08-13T12:29:54.359Z,63.48
2018-08-13T12:30:54.354Z,64.11
2018-08-13T12:31:54.340Z,63.41
2018-08-13T12:32:54.329Z,65.61
2018-08-13T12:33:54.339Z,69.20
2018-08-13T12:34:54.311Z,67.23
2018-08-13T12:35:54.291Z,66.24
2018-08-13T12:36:54.288Z,68.60
2018-08-13T12:37:54.268Z,64.34
2018-08-13T12:38:54.283Z,65.61
2018-08-13T12:39:54.253Z,63.44
2018-08-13T12:40:54.245Z,65.11
2018-08-13T12:41:54.230Z,66.33
2018-08-13T12:42:54.219Z,65.26
2018-08-13T12:43:54.233Z,65.64
2018-08-13T12:44:54.190Z,65.47
2018-08-13T12:45:54.189Z,69.89
2018-08-13T12:46:54.176Z,65.00
2018-08-13T12:47:54.171Z,66.39
2018-08-13T12:48:54.180Z,69.43
2018-08-13T12:49:54.133Z,65.23
2018-08-13T12:50:54.149Z,66.86
2018-08-13T12:51:54.113Z,65.16